sensor_id;sensor_type;location;lat;lon;timestamp;pressure;altitude;pressure_sealevel;temperature;humidity
21361;BME280;10839;43.206;23.550;2022-07-03T00:01:33;97515.00;;;22.06;99.45
21361;BME280;10839;43.206;23.550;2022-07-03T00:03:58;97512.53;;;22.09;99.28
21361;BME280;10839;43.206;23.550;2022-07-03T00:06:26;97517.25;;;21.87;100.00
21361;BME280;10839;43.206;23.550;2022-07-03T00:08:53;97505.31;;;21.98;99.42
21361;BME280;10839;43.206;23.550;2022-07-03T00:11:20;97509.19;;;22.02;98.82
21361;BME280;10839;43.206;23.550;2022-07-03T00:13:46;97506.97;;;21.99;98.73
21361;BME280;10839;43.206;23.550;2022-07-03T00:16:12;97504.75;;;21.96;99.55
21361;BME280;10839;43.206;23.550;2022-07-03T00:18:38;97497.09;;;21.98;98.55
21361;BME280;10839;43.206;23.550;2022-07-03T00:21:08;97504.19;;;21.94;98.46
21361;BME280;10839;43.206;23.550;2022-07-03T00:23:46;97504.13;;;21.89;99.35
21361;BME280;10839;43.206;23.550;2022-07-03T00:26:13;97509.53;;;22.06;97.56
21361;BME280;10839;43.206;23.550;2022-07-03T00:28:41;97500.41;;;22.00;97.72
21361;BME280;10839;43.206;23.550;2022-07-03T00:31:11;97506.31;;;21.87;98.84
21361;BME280;10839;43.206;23.550;2022-07-03T00:33:38;97500.94;;;21.97;97.45
21361;BME280;10839;43.206;23.550;2022-07-03T00:36:07;97496.09;;;22.09;96.49
21361;BME280;10839;43.206;23.550;2022-07-03T00:38:33;97502.78;;;22.18;95.16
21361;BME280;10839;43.206;23.550;2022-07-03T00:41:02;97505.16;;;22.10;95.13
21361;BME280;10839;43.206;23.550;2022-07-03T00:43:32;97499.88;;;22.03;94.37
21361;BME280;10839;43.206;23.550;2022-07-03T00:46:06;97494.34;;;21.98;95.60
21361;BME280;10839;43.206;23.550;2022-07-03T00:48:37;97492.03;;;21.85;95.63
21361;BME280;10839;43.206;23.550;2022-07-03T00:51:06;97487.50;;;21.96;95.17
21361;BME280;10839;43.206;23.550;2022-07-03T00:53:36;97493.31;;;22.04;94.04
21361;BME280;10839;43.206;23.550;2022-07-03T00:56:04;97480.34;;;21.95;98.22
21361;BME280;10839;43.206;23.550;2022-07-03T00:58:32;97479.66;;;22.09;95.04
21361;BME280;10839;43.206;23.550;2022-07-03T01:01:00;97475.47;;;22.02;95.13
21361;BME280;10839;43.206;23.550;2022-07-03T01:03:27;97473.72;;;22.17;93.15
21361;BME280;10839;43.206;23.550;2022-07-03T01:05:55;97465.94;;;22.09;93.20
21361;BME280;10839;43.206;23.550;2022-07-03T01:11:25;97461.75;;;21.75;99.92
21361;BME280;10839;43.206;23.550;2022-07-03T01:16:59;97469.88;;;21.22;100.00
21361;BME280;10839;43.206;23.550;2022-07-03T01:19:40;97463.03;;;21.24;100.00
21361;BME280;10839;43.206;23.550;2022-07-03T01:22:35;97454.69;;;21.31;100.00
21361;BME280;10839;43.206;23.550;2022-07-03T01:30:15;97450.97;;;21.42;100.00
21361;BME280;10839;43.206;23.550;2022-07-03T01:32:44;97447.59;;;21.35;100.00
21361;BME280;10839;43.206;23.550;2022-07-03T01:35:13;97466.28;;;21.43;100.00
21361;BME280;10839;43.206;23.550;2022-07-03T01:37:41;97456.50;;;21.47;100.00
21361;BME280;10839;43.206;23.550;2022-07-03T01:40:08;97466.81;;;21.40;100.00
21361;BME280;10839;43.206;23.550;2022-07-03T01:42:36;97465.44;;;21.37;100.00
21361;BME280;10839;43.206;23.550;2022-07-03T01:45:13;97475.91;;;21.67;100.00
21361;BME280;10839;43.206;23.550;2022-07-03T01:47:41;97475.09;;;21.45;100.00
21361;BME280;10839;43.206;23.550;2022-07-03T01:50:12;97470.25;;;21.52;100.00
21361;BME280;10839;43.206;23.550;2022-07-03T01:52:41;97479.66;;;21.61;100.00
21361;BME280;10839;43.206;23.550;2022-07-03T01:55:15;97480.06;;;21.48;100.00
21361;BME280;10839;43.206;23.550;2022-07-03T01:57:45;97482.13;;;21.36;100.00
21361;BME280;10839;43.206;23.550;2022-07-03T02:00:15;97482.13;;;21.36;100.00
21361;BME280;10839;43.206;23.550;2022-07-03T02:02:45;97482.66;;;21.38;100.00
21361;BME280;10839;43.206;23.550;2022-07-03T02:05:36;97474.56;;;21.48;100.00
21361;BME280;10839;43.206;23.550;2022-07-03T02:08:36;97468.53;;;21.46;100.00
21361;BME280;10839;43.206;23.550;2022-07-03T02:11:18;97478.34;;;21.20;100.00
21361;BME280;10839;43.206;23.550;2022-07-03T02:16:22;97475.44;;;20.72;100.00
21361;BME280;10839;43.206;23.550;2022-07-03T02:19:04;97481.91;;;20.66;100.00
21361;BME280;10839;43.206;23.550;2022-07-03T02:21:31;97482.75;;;20.67;100.00
21361;BME280;10839;43.206;23.550;2022-07-03T02:26:55;97481.53;;;21.12;100.00
21361;BME280;10839;43.206;23.550;2022-07-03T02:29:33;97484.78;;;21.09;100.00
21361;BME280;10839;43.206;23.550;2022-07-03T02:32:03;97483.81;;;21.20;100.00
21361;BME280;10839;43.206;23.550;2022-07-03T02:34:31;97492.56;;;21.39;100.00
21361;BME280;10839;43.206;23.550;2022-07-03T02:37:06;97502.59;;;21.12;100.00
21361;BME280;10839;43.206;23.550;2022-07-03T02:39:57;97480.09;;;21.10;100.00
21361;BME280;10839;43.206;23.550;2022-07-03T02:42:45;97481.06;;;20.99;100.00
21361;BME280;10839;43.206;23.550;2022-07-03T02:45:13;97486.59;;;21.04;100.00
21361;BME280;10839;43.206;23.550;2022-07-03T02:48:02;97482.03;;;21.09;100.00
21361;BME280;10839;43.206;23.550;2022-07-03T02:50:33;97479.38;;;20.98;100.00
21361;BME280;10839;43.206;23.550;2022-07-03T02:53:15;97490.47;;;21.08;100.00
21361;BME280;10839;43.206;23.550;2022-07-03T02:55:46;97493.16;;;21.03;100.00
21361;BME280;10839;43.206;23.550;2022-07-03T03:04:21;97494.50;;;21.22;100.00
21361;BME280;10839;43.206;23.550;2022-07-03T03:06:55;97488.19;;;21.43;100.00
21361;BME280;10839;43.206;23.550;2022-07-03T03:09:38;97488.31;;;21.53;100.00
21361;BME280;10839;43.206;23.550;2022-07-03T03:12:06;97487.94;;;21.66;98.15
21361;BME280;10839;43.206;23.550;2022-07-03T03:14:45;97489.66;;;21.72;95.18
21361;BME280;10839;43.206;23.550;2022-07-03T03:17:24;97493.94;;;21.63;99.38
21361;BME280;10839;43.206;23.550;2022-07-03T03:19:58;97496.34;;;21.81;98.76
21361;BME280;10839;43.206;23.550;2022-07-03T03:22:49;97496.66;;;21.85;98.48
21361;BME280;10839;43.206;23.550;2022-07-03T03:25:19;97489.91;;;21.71;100.00
21361;BME280;10839;43.206;23.550;2022-07-03T03:27:46;97497.00;;;21.45;100.00
21361;BME280;10839;43.206;23.550;2022-07-03T03:30:12;97491.06;;;21.31;100.00
21361;BME280;10839;43.206;23.550;2022-07-03T03:32:39;97494.84;;;21.47;100.00
21361;BME280;10839;43.206;23.550;2022-07-03T03:35:07;97487.81;;;21.78;100.00
21361;BME280;10839;43.206;23.550;2022-07-03T03:37:33;97490.06;;;22.07;97.00
21361;BME280;10839;43.206;23.550;2022-07-03T03:39:59;97493.41;;;22.14;95.88
21361;BME280;10839;43.206;23.550;2022-07-03T03:42:27;97497.19;;;22.08;96.89
21361;BME280;10839;43.206;23.550;2022-07-03T03:44:53;97494.94;;;22.00;97.36
21361;BME280;10839;43.206;23.550;2022-07-03T03:47:19;97498.25;;;22.02;98.57
21361;BME280;10839;43.206;23.550;2022-07-03T03:49:45;97497.81;;;21.89;96.71
21361;BME280;10839;43.206;23.550;2022-07-03T03:52:11;97497.72;;;22.05;98.08
21361;BME280;10839;43.206;23.550;2022-07-03T03:54:37;97498.84;;;22.09;97.26
21361;BME280;10839;43.206;23.550;2022-07-03T03:57:17;97507.41;;;21.91;99.19
21361;BME280;10839;43.206;23.550;2022-07-03T03:59:44;97503.19;;;22.05;98.91
21361;BME280;10839;43.206;23.550;2022-07-03T04:02:10;97506.03;;;21.67;100.00
21361;BME280;10839;43.206;23.550;2022-07-03T04:04:36;97506.81;;;21.84;100.00
21361;BME280;10839;43.206;23.550;2022-07-03T04:07:02;97508.06;;;21.55;100.00
21361;BME280;10839;43.206;23.550;2022-07-03T04:09:28;97504.31;;;21.61;100.00
21361;BME280;10839;43.206;23.550;2022-07-03T04:11:54;97498.13;;;21.92;100.00
21361;BME280;10839;43.206;23.550;2022-07-03T04:14:20;97513.34;;;22.36;96.70
21361;BME280;10839;43.206;23.550;2022-07-03T04:16:46;97514.47;;;21.82;98.85
21361;BME280;10839;43.206;23.550;2022-07-03T04:19:13;97512.38;;;21.89;98.86
21361;BME280;10839;43.206;23.550;2022-07-03T04:21:39;97509.09;;;21.92;98.51
21361;BME280;10839;43.206;23.550;2022-07-03T04:24:05;97506.63;;;22.17;98.11
21361;BME280;10839;43.206;23.550;2022-07-03T04:26:31;97508.25;;;22.18;98.22
21361;BME280;10839;43.206;23.550;2022-07-03T04:28:57;97502.84;;;22.55;94.51
21361;BME280;10839;43.206;23.550;2022-07-03T04:31:23;97506.56;;;22.70;94.16
21361;BME280;10839;43.206;23.550;2022-07-03T04:33:49;97512.19;;;22.91;91.28
21361;BME280;10839;43.206;23.550;2022-07-03T04:36:16;97510.19;;;22.49;93.07
21361;BME280;10839;43.206;23.550;2022-07-03T04:38:43;97510.03;;;22.34;94.44
21361;BME280;10839;43.206;23.550;2022-07-03T04:41:09;97511.75;;;22.40;95.72
21361;BME280;10839;43.206;23.550;2022-07-03T04:43:35;97504.81;;;22.59;94.71
21361;BME280;10839;43.206;23.550;2022-07-03T04:46:02;97507.91;;;22.41;95.42
21361;BME280;10839;43.206;23.550;2022-07-03T04:48:29;97508.53;;;22.48;95.18
21361;BME280;10839;43.206;23.550;2022-07-03T04:50:56;97508.69;;;23.00;91.45
21361;BME280;10839;43.206;23.550;2022-07-03T04:53:22;97512.19;;;22.91;92.53
21361;BME280;10839;43.206;23.550;2022-07-03T04:55:48;97512.66;;;22.83;92.73
21361;BME280;10839;43.206;23.550;2022-07-03T04:58:15;97516.66;;;23.02;89.02
21361;BME280;10839;43.206;23.550;2022-07-03T05:00:43;97515.63;;;23.13;90.42
21361;BME280;10839;43.206;23.550;2022-07-03T05:03:09;97509.03;;;23.09;90.66
21361;BME280;10839;43.206;23.550;2022-07-03T05:05:36;97520.97;;;23.29;89.55
21361;BME280;10839;43.206;23.550;2022-07-03T05:08:02;97522.78;;;24.77;79.07
21361;BME280;10839;43.206;23.550;2022-07-03T05:10:28;97528.00;;;24.94;77.89
21361;BME280;10839;43.206;23.550;2022-07-03T05:12:54;97521.97;;;24.97;79.15
21361;BME280;10839;43.206;23.550;2022-07-03T05:15:20;97529.66;;;24.85;78.37
21361;BME280;10839;43.206;23.550;2022-07-03T05:17:47;97527.38;;;25.27;76.81
21361;BME280;10839;43.206;23.550;2022-07-03T05:20:13;97529.66;;;25.05;77.33
21361;BME280;10839;43.206;23.550;2022-07-03T05:22:56;97527.06;;;25.54;74.58
21361;BME280;10839;43.206;23.550;2022-07-03T05:25:23;97534.84;;;25.21;76.67
21361;BME280;10839;43.206;23.550;2022-07-03T05:27:49;97534.75;;;25.72;74.90
21361;BME280;10839;43.206;23.550;2022-07-03T05:30:20;97533.44;;;28.00;65.56
21361;BME280;10839;43.206;23.550;2022-07-03T05:32:46;97523.16;;;28.79;62.33
21361;BME280;10839;43.206;23.550;2022-07-03T05:35:13;97529.97;;;29.19;60.29
21361;BME280;10839;43.206;23.550;2022-07-03T05:37:39;97530.94;;;29.55;60.29
21361;BME280;10839;43.206;23.550;2022-07-03T05:40:06;97520.59;;;30.86;55.08
21361;BME280;10839;43.206;23.550;2022-07-03T05:42:33;97515.47;;;30.80;53.78
21361;BME280;10839;43.206;23.550;2022-07-03T05:44:59;97521.81;;;29.41;58.52
21361;BME280;10839;43.206;23.550;2022-07-03T05:47:25;97519.84;;;32.25;51.89
21361;BME280;10839;43.206;23.550;2022-07-03T05:49:52;97531.84;;;34.21;47.15
21361;BME280;10839;43.206;23.550;2022-07-03T05:52:18;97525.03;;;35.78;42.69
21361;BME280;10839;43.206;23.550;2022-07-03T05:54:44;97531.03;;;35.44;42.55
21361;BME280;10839;43.206;23.550;2022-07-03T05:57:10;97537.28;;;34.17;44.72
21361;BME280;10839;43.206;23.550;2022-07-03T05:59:37;97524.66;;;33.10;47.22
21361;BME280;10839;43.206;23.550;2022-07-03T06:02:03;97529.75;;;34.09;45.66
21361;BME280;10839;43.206;23.550;2022-07-03T06:04:29;97534.34;;;35.58;41.78
21361;BME280;10839;43.206;23.550;2022-07-03T06:06:55;97529.81;;;36.74;39.99
21361;BME280;10839;43.206;23.550;2022-07-03T06:09:24;97532.06;;;37.79;39.23
21361;BME280;10839;43.206;23.550;2022-07-03T06:11:50;97520.78;;;37.48;39.40
21361;BME280;10839;43.206;23.550;2022-07-03T06:14:17;97531.53;;;37.89;38.78
21361;BME280;10839;43.206;23.550;2022-07-03T06:16:43;97538.31;;;38.03;36.50
21361;BME280;10839;43.206;23.550;2022-07-03T06:19:09;97536.03;;;37.62;36.69
21361;BME280;10839;43.206;23.550;2022-07-03T06:21:35;97521.75;;;35.64;39.33
21361;BME280;10839;43.206;23.550;2022-07-03T06:24:01;97518.28;;;35.02;41.05
21361;BME280;10839;43.206;23.550;2022-07-03T06:26:27;97526.44;;;34.65;41.79
21361;BME280;10839;43.206;23.550;2022-07-03T06:28:55;97527.97;;;33.67;45.22
21361;BME280;10839;43.206;23.550;2022-07-03T06:31:21;97522.75;;;33.57;46.46
21361;BME280;10839;43.206;23.550;2022-07-03T06:33:47;97526.94;;;32.74;48.13
21361;BME280;10839;43.206;23.550;2022-07-03T06:36:14;97529.75;;;31.09;52.46
21361;BME280;10839;43.206;23.550;2022-07-03T06:38:40;97524.94;;;31.23;52.59
21361;BME280;10839;43.206;23.550;2022-07-03T06:41:05;97528.13;;;30.86;54.14
21361;BME280;10839;43.206;23.550;2022-07-03T06:43:31;97526.97;;;31.09;53.65
21361;BME280;10839;43.206;23.550;2022-07-03T06:45:57;97530.66;;;30.25;55.68
21361;BME280;10839;43.206;23.550;2022-07-03T06:48:23;97521.00;;;28.90;60.28
21361;BME280;10839;43.206;23.550;2022-07-03T06:50:49;97532.44;;;28.70;60.96
21361;BME280;10839;43.206;23.550;2022-07-03T06:53:15;97522.53;;;28.27;63.59
21361;BME280;10839;43.206;23.550;2022-07-03T06:55:41;97526.13;;;28.09;65.30
21361;BME280;10839;43.206;23.550;2022-07-03T06:58:08;97522.94;;;28.76;62.63
21361;BME280;10839;43.206;23.550;2022-07-03T07:00:34;97526.50;;;30.49;57.00
21361;BME280;10839;43.206;23.550;2022-07-03T07:03:02;97531.13;;;31.81;52.35
21361;BME280;10839;43.206;23.550;2022-07-03T07:05:28;97526.13;;;31.31;53.61
21361;BME280;10839;43.206;23.550;2022-07-03T07:07:54;97534.00;;;31.59;52.51
21361;BME280;10839;43.206;23.550;2022-07-03T07:10:20;97526.38;;;32.29;49.69
21361;BME280;10839;43.206;23.550;2022-07-03T07:12:46;97536.00;;;32.97;45.82
21361;BME280;10839;43.206;23.550;2022-07-03T07:15:12;97530.44;;;31.67;49.01
21361;BME280;10839;43.206;23.550;2022-07-03T07:17:38;97538.09;;;31.92;48.84
21361;BME280;10839;43.206;23.550;2022-07-03T07:20:05;97538.94;;;31.62;49.01
21361;BME280;10839;43.206;23.550;2022-07-03T07:22:31;97531.38;;;31.54;50.09
21361;BME280;10839;43.206;23.550;2022-07-03T07:24:57;97535.06;;;31.19;50.28
21361;BME280;10839;43.206;23.550;2022-07-03T07:27:23;97536.22;;;30.96;50.58
21361;BME280;10839;43.206;23.550;2022-07-03T07:29:49;97538.06;;;30.29;52.05
21361;BME280;10839;43.206;23.550;2022-07-03T07:32:15;97530.28;;;30.75;51.97
21361;BME280;10839;43.206;23.550;2022-07-03T07:34:41;97522.19;;;31.01;51.98
21361;BME280;10839;43.206;23.550;2022-07-03T07:37:07;97523.34;;;32.74;49.57
21361;BME280;10839;43.206;23.550;2022-07-03T07:39:33;97533.53;;;33.04;46.78
21361;BME280;10839;43.206;23.550;2022-07-03T07:41:59;97523.25;;;32.14;46.99
21361;BME280;10839;43.206;23.550;2022-07-03T07:44:25;97521.84;;;33.19;45.46
21361;BME280;10839;43.206;23.550;2022-07-03T07:46:51;97526.50;;;32.16;46.21
21361;BME280;10839;43.206;23.550;2022-07-03T07:49:17;97516.19;;;31.69;48.56
21361;BME280;10839;43.206;23.550;2022-07-03T07:51:43;97522.97;;;33.35;43.01
21361;BME280;10839;43.206;23.550;2022-07-03T07:54:09;97525.75;;;33.35;46.27
21361;BME280;10839;43.206;23.550;2022-07-03T07:56:35;97529.34;;;33.99;45.47
21361;BME280;10839;43.206;23.550;2022-07-03T07:59:01;97522.31;;;33.84;44.44
21361;BME280;10839;43.206;23.550;2022-07-03T08:01:27;97526.09;;;34.17;42.30
21361;BME280;10839;43.206;23.550;2022-07-03T08:04:12;97520.25;;;34.10;41.06
21361;BME280;10839;43.206;23.550;2022-07-03T08:06:56;97516.88;;;34.25;39.76
21361;BME280;10839;43.206;23.550;2022-07-03T08:09:22;97508.66;;;34.49;40.54
21361;BME280;10839;43.206;23.550;2022-07-03T08:11:50;97517.81;;;33.54;41.24
21361;BME280;10839;43.206;23.550;2022-07-03T08:14:16;97517.78;;;33.62;40.63
21361;BME280;10839;43.206;23.550;2022-07-03T08:16:42;97516.22;;;33.27;41.65
21361;BME280;10839;43.206;23.550;2022-07-03T08:19:10;97517.47;;;33.64;39.95
21361;BME280;10839;43.206;23.550;2022-07-03T08:21:36;97516.78;;;34.83;39.14
21361;BME280;10839;43.206;23.550;2022-07-03T08:24:02;97519.09;;;35.02;38.00
21361;BME280;10839;43.206;23.550;2022-07-03T08:26:28;97514.25;;;33.45;38.90
21361;BME280;10839;43.206;23.550;2022-07-03T08:28:54;97508.44;;;34.96;37.40
21361;BME280;10839;43.206;23.550;2022-07-03T08:31:20;97513.44;;;34.69;37.20
21361;BME280;10839;43.206;23.550;2022-07-03T08:33:46;97520.00;;;35.27;37.27
21361;BME280;10839;43.206;23.550;2022-07-03T08:36:12;97520.81;;;33.95;38.76
21361;BME280;10839;43.206;23.550;2022-07-03T08:38:39;97524.28;;;33.92;40.32
21361;BME280;10839;43.206;23.550;2022-07-03T08:41:05;97512.81;;;34.43;40.84
21361;BME280;10839;43.206;23.550;2022-07-03T08:43:33;97510.47;;;35.07;39.42
21361;BME280;10839;43.206;23.550;2022-07-03T08:45:59;97514.84;;;35.17;39.51
21361;BME280;10839;43.206;23.550;2022-07-03T08:48:27;97511.38;;;34.08;39.71
21361;BME280;10839;43.206;23.550;2022-07-03T08:50:56;97504.97;;;34.57;40.07
21361;BME280;10839;43.206;23.550;2022-07-03T08:53:24;97509.72;;;33.70;40.95
21361;BME280;10839;43.206;23.550;2022-07-03T08:55:50;97497.59;;;34.03;40.12
21361;BME280;10839;43.206;23.550;2022-07-03T08:58:18;97507.91;;;32.85;42.18
21361;BME280;10839;43.206;23.550;2022-07-03T09:00:47;97509.81;;;33.35;41.08
21361;BME280;10839;43.206;23.550;2022-07-03T09:03:14;97512.00;;;33.13;40.77
21361;BME280;10839;43.206;23.550;2022-07-03T09:05:40;97507.09;;;32.59;41.23
21361;BME280;10839;43.206;23.550;2022-07-03T09:08:08;97511.41;;;33.62;39.91
21361;BME280;10839;43.206;23.550;2022-07-03T09:10:34;97507.50;;;34.50;38.32
21361;BME280;10839;43.206;23.550;2022-07-03T09:13:01;97500.34;;;34.32;38.06
21361;BME280;10839;43.206;23.550;2022-07-03T09:15:27;97505.72;;;33.79;38.52
21361;BME280;10839;43.206;23.550;2022-07-03T09:18:04;97498.63;;;35.55;36.95
21361;BME280;10839;43.206;23.550;2022-07-03T09:20:33;97503.22;;;36.44;36.56
21361;BME280;10839;43.206;23.550;2022-07-03T09:26:14;97510.47;;;33.87;39.06
21361;BME280;10839;43.206;23.550;2022-07-03T09:31:13;97505.63;;;32.61;43.73
21361;BME280;10839;43.206;23.550;2022-07-03T09:33:56;97506.69;;;33.37;41.18
21361;BME280;10839;43.206;23.550;2022-07-03T09:36:37;97501.13;;;34.12;41.46
21361;BME280;10839;43.206;23.550;2022-07-03T09:39:30;97497.78;;;35.10;39.63
21361;BME280;10839;43.206;23.550;2022-07-03T09:42:19;97501.44;;;34.19;40.10
21361;BME280;10839;43.206;23.550;2022-07-03T09:44:45;97503.59;;;33.47;42.53
21361;BME280;10839;43.206;23.550;2022-07-03T09:49:48;97494.97;;;32.89;45.01
21361;BME280;10839;43.206;23.550;2022-07-03T09:52:26;97492.66;;;32.91;43.59
21361;BME280;10839;43.206;23.550;2022-07-03T09:54:59;97488.59;;;32.54;42.68
21361;BME280;10839;43.206;23.550;2022-07-03T09:57:29;97499.25;;;32.61;43.31
21361;BME280;10839;43.206;23.550;2022-07-03T10:00:29;97490.38;;;31.46;44.72
21361;BME280;10839;43.206;23.550;2022-07-03T10:03:09;97488.56;;;32.88;42.87
21361;BME280;10839;43.206;23.550;2022-07-03T10:05:40;97488.34;;;31.69;45.47
21361;BME280;10839;43.206;23.550;2022-07-03T10:10:42;97480.09;;;31.94;44.49
21361;BME280;10839;43.206;23.550;2022-07-03T10:13:10;97474.94;;;32.53;43.34
21361;BME280;10839;43.206;23.550;2022-07-03T10:15:38;97475.19;;;33.28;42.30
21361;BME280;10839;43.206;23.550;2022-07-03T10:18:10;97472.63;;;32.37;43.00
21361;BME280;10839;43.206;23.550;2022-07-03T10:23:09;97467.91;;;31.73;43.43
21361;BME280;10839;43.206;23.550;2022-07-03T10:25:37;97468.63;;;31.87;44.02
21361;BME280;10839;43.206;23.550;2022-07-03T10:28:06;97458.50;;;32.08;43.56
21361;BME280;10839;43.206;23.550;2022-07-03T10:30:32;97456.22;;;32.10;41.82
21361;BME280;10839;43.206;23.550;2022-07-03T10:33:00;97451.19;;;31.73;42.08
21361;BME280;10839;43.206;23.550;2022-07-03T10:35:32;97448.84;;;32.74;41.00
21361;BME280;10839;43.206;23.550;2022-07-03T10:44:02;97435.91;;;32.53;45.30
21361;BME280;10839;43.206;23.550;2022-07-03T10:46:47;97444.13;;;32.58;45.63
21361;BME280;10839;43.206;23.550;2022-07-03T10:49:14;97431.41;;;33.11;43.73
21361;BME280;10839;43.206;23.550;2022-07-03T10:52:00;97426.19;;;33.85;42.98
21361;BME280;10839;43.206;23.550;2022-07-03T10:54:31;97426.34;;;33.05;44.39
21361;BME280;10839;43.206;23.550;2022-07-03T11:02:21;97421.78;;;32.06;46.39
21361;BME280;10839;43.206;23.550;2022-07-03T11:07:30;97410.97;;;31.96;46.06
21361;BME280;10839;43.206;23.550;2022-07-03T11:15:26;97408.00;;;32.87;45.62
21361;BME280;10839;43.206;23.550;2022-07-03T11:21:21;97401.16;;;31.90;48.51
21361;BME280;10839;43.206;23.550;2022-07-03T11:24:18;97406.41;;;32.00;49.05
21361;BME280;10839;43.206;23.550;2022-07-03T11:26:34;97395.25;;;32.34;48.35
21361;BME280;10839;43.206;23.550;2022-07-03T11:29:00;97396.25;;;31.87;48.83
21361;BME280;10839;43.206;23.550;2022-07-03T11:31:26;97389.13;;;31.64;49.79
21361;BME280;10839;43.206;23.550;2022-07-03T11:36:26;97382.75;;;31.72;49.28
21361;BME280;10839;43.206;23.550;2022-07-03T11:41:18;97388.69;;;31.96;48.46
21361;BME280;10839;43.206;23.550;2022-07-03T11:43:59;97381.44;;;31.78;48.71
21361;BME280;10839;43.206;23.550;2022-07-03T11:46:29;97385.38;;;32.80;46.67
21361;BME280;10839;43.206;23.550;2022-07-03T11:49:13;97377.06;;;31.86;47.32
21361;BME280;10839;43.206;23.550;2022-07-03T11:51:40;97378.13;;;31.68;47.70
21361;BME280;10839;43.206;23.550;2022-07-03T11:54:07;97372.28;;;32.37;47.16
21361;BME280;10839;43.206;23.550;2022-07-03T11:56:34;97372.31;;;32.03;47.81
21361;BME280;10839;43.206;23.550;2022-07-03T11:59:05;97386.50;;;31.76;47.70
21361;BME280;10839;43.206;23.550;2022-07-03T12:01:37;97378.28;;;31.63;48.16
21361;BME280;10839;43.206;23.550;2022-07-03T12:04:18;97376.53;;;31.75;47.54
21361;BME280;10839;43.206;23.550;2022-07-03T12:06:50;97366.97;;;31.42;46.99
21361;BME280;10839;43.206;23.550;2022-07-03T12:09:28;97368.00;;;31.80;46.87
21361;BME280;10839;43.206;23.550;2022-07-03T12:12:05;97365.78;;;32.51;46.34
21361;BME280;10839;43.206;23.550;2022-07-03T12:14:48;97363.72;;;32.77;44.05
21361;BME280;10839;43.206;23.550;2022-07-03T12:17:21;97347.00;;;32.77;44.56
21361;BME280;10839;43.206;23.550;2022-07-03T12:19:58;97350.03;;;31.86;46.47
21361;BME280;10839;43.206;23.550;2022-07-03T12:22:36;97356.38;;;31.70;45.12
21361;BME280;10839;43.206;23.550;2022-07-03T12:25:11;97352.59;;;31.57;45.96
21361;BME280;10839;43.206;23.550;2022-07-03T12:27:42;97355.88;;;31.76;45.59
21361;BME280;10839;43.206;23.550;2022-07-03T12:30:17;97340.69;;;31.99;45.23
21361;BME280;10839;43.206;23.550;2022-07-03T12:32:45;97345.75;;;31.80;45.43
21361;BME280;10839;43.206;23.550;2022-07-03T12:35:11;97338.22;;;31.89;43.92
21361;BME280;10839;43.206;23.550;2022-07-03T12:37:39;97340.53;;;31.87;44.38
21361;BME280;10839;43.206;23.550;2022-07-03T12:40:12;97337.28;;;32.02;44.10
21361;BME280;10839;43.206;23.550;2022-07-03T12:42:49;97342.97;;;32.06;43.48
21361;BME280;10839;43.206;23.550;2022-07-03T12:45:26;97334.28;;;32.24;42.64
21361;BME280;10839;43.206;23.550;2022-07-03T12:47:59;97327.22;;;31.67;44.15
21361;BME280;10839;43.206;23.550;2022-07-03T12:50:42;97325.47;;;31.88;43.73
21361;BME280;10839;43.206;23.550;2022-07-03T12:53:09;97336.59;;;32.22;42.43
21361;BME280;10839;43.206;23.550;2022-07-03T12:55:35;97320.34;;;31.82;42.57
21361;BME280;10839;43.206;23.550;2022-07-03T12:58:15;97333.50;;;31.98;43.60
21361;BME280;10839;43.206;23.550;2022-07-03T13:01:00;97327.38;;;31.79;42.40
21361;BME280;10839;43.206;23.550;2022-07-03T13:03:35;97323.63;;;32.35;41.87
21361;BME280;10839;43.206;23.550;2022-07-03T13:06:02;97341.25;;;32.90;41.57
21361;BME280;10839;43.206;23.550;2022-07-03T13:08:28;97338.41;;;32.01;41.77
21361;BME280;10839;43.206;23.550;2022-07-03T13:10:56;97325.47;;;31.88;41.81
21361;BME280;10839;43.206;23.550;2022-07-03T13:13:22;97326.88;;;31.52;43.01
21361;BME280;10839;43.206;23.550;2022-07-03T13:15:48;97331.75;;;31.46;42.76
21361;BME280;10839;43.206;23.550;2022-07-03T13:18:14;97328.56;;;31.22;44.30
21361;BME280;10839;43.206;23.550;2022-07-03T13:20:40;97328.00;;;31.42;44.31
21361;BME280;10839;43.206;23.550;2022-07-03T13:23:07;97331.91;;;31.41;43.97
21361;BME280;10839;43.206;23.550;2022-07-03T13:25:36;97318.44;;;31.26;44.14
21361;BME280;10839;43.206;23.550;2022-07-03T13:28:09;97324.25;;;31.55;43.64
21361;BME280;10839;43.206;23.550;2022-07-03T13:30:38;97321.34;;;31.21;44.46
21361;BME280;10839;43.206;23.550;2022-07-03T13:33:04;97312.72;;;31.22;44.26
21361;BME280;10839;43.206;23.550;2022-07-03T13:35:31;97316.25;;;31.62;43.38
21361;BME280;10839;43.206;23.550;2022-07-03T13:37:57;97317.53;;;31.39;42.87
21361;BME280;10839;43.206;23.550;2022-07-03T13:40:23;97318.41;;;31.09;43.20
21361;BME280;10839;43.206;23.550;2022-07-03T13:42:49;97321.44;;;31.38;42.60
21361;BME280;10839;43.206;23.550;2022-07-03T13:45:15;97306.16;;;31.18;41.77
21361;BME280;10839;43.206;23.550;2022-07-03T13:47:42;97307.41;;;31.60;40.95
21361;BME280;10839;43.206;23.550;2022-07-03T13:50:08;97307.44;;;31.77;40.56
21361;BME280;10839;43.206;23.550;2022-07-03T13:52:35;97305.47;;;31.69;41.25
21361;BME280;10839;43.206;23.550;2022-07-03T13:55:02;97307.41;;;32.28;39.63
21361;BME280;10839;43.206;23.550;2022-07-03T13:57:28;97302.50;;;31.74;40.36
21361;BME280;10839;43.206;23.550;2022-07-03T13:59:55;97303.63;;;31.39;40.94
21361;BME280;10839;43.206;23.550;2022-07-03T14:02:21;97304.47;;;31.82;40.59
21361;BME280;10839;43.206;23.550;2022-07-03T14:04:47;97300.72;;;31.95;40.66